sensor_id;sensor_type;location;lat;lon;timestamp;pressure;altitude;pressure_sealevel;temperature;humidity
12172;BME280;6149;52.418;13.668;2022-09-09T00:01:54;100609.84;;;14.86;100.00
12172;BME280;6149;52.418;13.668;2022-09-09T00:04:29;100614.47;;;14.84;100.00
12172;BME280;6149;52.418;13.668;2022-09-09T00:07:03;100608.41;;;14.82;100.00
12172;BME280;6149;52.418;13.668;2022-09-09T00:09:38;100614.78;;;14.79;100.00
12172;BME280;6149;52.418;13.668;2022-09-09T00:12:11;100612.34;;;14.76;100.00
12172;BME280;6149;52.418;13.668;2022-09-09T00:14:47;100612.44;;;14.75;100.00
12172;BME280;6149;52.418;13.668;2022-09-09T00:17:24;100610.84;;;14.72;100.00
12172;BME280;6149;52.418;13.668;2022-09-09T00:20:03;100613.72;;;14.69;100.00
12172;BME280;6149;52.418;13.668;2022-09-09T00:22:38;100613.94;;;14.66;100.00
12172;BME280;6149;52.418;13.668;2022-09-09T00:25:11;100611.50;;;14.63;100.00
12172;BME280;6149;52.418;13.668;2022-09-09T00:27:45;100616.06;;;14.61;100.00
12172;BME280;6149;52.418;13.668;2022-09-09T00:30:16;100618.94;;;14.58;100.00
12172;BME280;6149;52.418;13.668;2022-09-09T00:32:48;100605.84;;;14.55;100.00
12172;BME280;6149;52.418;13.668;2022-09-09T00:35:21;100598.81;;;14.54;100.00
12172;BME280;6149;52.418;13.668;2022-09-09T00:37:53;100597.22;;;14.51;100.00
12172;BME280;6149;52.418;13.668;2022-09-09T00:40:26;100596.38;;;14.51;100.00
12172;BME280;6149;52.418;13.668;2022-09-09T00:43:08;100595.63;;;14.49;100.00
12172;BME280;6149;52.418;13.668;2022-09-09T00:45:55;100592.47;;;14.44;100.00
12172;BME280;6149;52.418;13.668;2022-09-09T00:48:36;100597.09;;;14.40;100.00
12172;BME280;6149;52.418;13.668;2022-09-09T00:51:15;100598.28;;;14.36;100.00
12172;BME280;6149;52.418;13.668;2022-09-09T00:54:03;100596.97;;;14.29;100.00
12172;BME280;6149;52.418;13.668;2022-09-09T00:56:43;100599.84;;;14.26;100.00
12172;BME280;6149;52.418;13.668;2022-09-09T00:59:32;100601.97;;;14.21;100.00
12172;BME280;6149;52.418;13.668;2022-09-09T01:02:13;100605.88;;;14.15;100.00
12172;BME280;6149;52.418;13.668;2022-09-09T01:04:47;100605.38;;;14.10;100.00
12172;BME280;6149;52.418;13.668;2022-09-09T01:07:17;100606.44;;;14.08;100.00
12172;BME280;6149;52.418;13.668;2022-09-09T01:09:54;100606.84;;;14.01;100.00
12172;BME280;6149;52.418;13.668;2022-09-09T01:12:27;100608.09;;;13.96;100.00
12172;BME280;6149;52.418;13.668;2022-09-09T01:15:08;100600.44;;;13.91;100.00
12172;BME280;6149;52.418;13.668;2022-09-09T01:17:46;100609.66;;;13.86;100.00
12172;BME280;6149;52.418;13.668;2022-09-09T01:20:19;100612.72;;;13.80;100.00
12172;BME280;6149;52.418;13.668;2022-09-09T01:22:59;100613.97;;;13.74;100.00
12172;BME280;6149;52.418;13.668;2022-09-09T01:26:21;100612.59;;;13.68;100.00
12172;BME280;6149;52.418;13.668;2022-09-09T01:28:52;100614.63;;;13.65;100.00
12172;BME280;6149;52.418;13.668;2022-09-09T01:31:21;100600.78;;;13.60;100.00
12172;BME280;6149;52.418;13.668;2022-09-09T01:33:50;100613.31;;;13.58;100.00
12172;BME280;6149;52.418;13.668;2022-09-09T01:36:24;100607.34;;;13.54;100.00
12172;BME280;6149;52.418;13.668;2022-09-09T01:38:54;100606.78;;;13.49;100.00
12172;BME280;6149;52.418;13.668;2022-09-09T01:41:22;100597.31;;;13.45;100.00
12172;BME280;6149;52.418;13.668;2022-09-09T01:43:49;100604.63;;;13.42;100.00
12172;BME280;6149;52.418;13.668;2022-09-09T01:46:18;100603.84;;;13.39;100.00
12172;BME280;6149;52.418;13.668;2022-09-09T01:48:48;100607.56;;;13.37;100.00
12172;BME280;6149;52.418;13.668;2022-09-09T01:51:15;100598.22;;;13.31;100.00
12172;BME280;6149;52.418;13.668;2022-09-09T01:53:43;100601.91;;;13.29;100.00
12172;BME280;6149;52.418;13.668;2022-09-09T01:56:18;100602.97;;;13.26;100.00
12172;BME280;6149;52.418;13.668;2022-09-09T01:59:04;100607.63;;;13.23;100.00
12172;BME280;6149;52.418;13.668;2022-09-09T02:01:46;100610.47;;;13.20;100.00
12172;BME280;6149;52.418;13.668;2022-09-09T02:04:30;100611.63;;;13.16;100.00
12172;BME280;6149;52.418;13.668;2022-09-09T02:07:05;100604.75;;;13.12;100.00
12172;BME280;6149;52.418;13.668;2022-09-09T02:09:42;100611.22;;;13.07;100.00
12172;BME280;6149;52.418;13.668;2022-09-09T02:12:18;100608.00;;;13.02;100.00
12172;BME280;6149;52.418;13.668;2022-09-09T02:14:50;100617.13;;;12.98;100.00
12172;BME280;6149;52.418;13.668;2022-09-09T02:17:22;100611.25;;;12.93;100.00
12172;BME280;6149;52.418;13.668;2022-09-09T02:19:57;100619.41;;;12.90;100.00
12172;BME280;6149;52.418;13.668;2022-09-09T02:22:30;100619.59;;;12.87;100.00
12172;BME280;6149;52.418;13.668;2022-09-09T02:25:00;100612.66;;;12.85;100.00
12172;BME280;6149;52.418;13.668;2022-09-09T02:27:32;100613.72;;;12.82;100.00
12172;BME280;6149;52.418;13.668;2022-09-09T02:30:00;100615.59;;;12.80;100.00
12172;BME280;6149;52.418;13.668;2022-09-09T02:32:32;100619.41;;;12.76;100.00
12172;BME280;6149;52.418;13.668;2022-09-09T02:35:04;100618.81;;;12.71;100.00
12172;BME280;6149;52.418;13.668;2022-09-09T02:37:37;100622.50;;;12.68;100.00
12172;BME280;6149;52.418;13.668;2022-09-09T02:40:06;100612.00;;;12.67;100.00
12172;BME280;6149;52.418;13.668;2022-09-09T02:42:39;100601.56;;;12.64;100.00
12172;BME280;6149;52.418;13.668;2022-09-09T02:45:08;100601.03;;;12.59;100.00
12172;BME280;6149;52.418;13.668;2022-09-09T02:47:38;100609.16;;;12.56;100.00
12172;BME280;6149;52.418;13.668;2022-09-09T02:50:13;100611.16;;;12.52;100.00
12172;BME280;6149;52.418;13.668;2022-09-09T02:52:51;100606.03;;;12.49;100.00
12172;BME280;6149;52.418;13.668;2022-09-09T02:55:25;100610.47;;;12.49;100.00
12172;BME280;6149;52.418;13.668;2022-09-09T02:57:58;100610.66;;;12.46;100.00
12172;BME280;6149;52.418;13.668;2022-09-09T03:00:27;100616.16;;;12.43;100.00
12172;BME280;6149;52.418;13.668;2022-09-09T03:02:55;100625.16;;;12.40;100.00
12172;BME280;6149;52.418;13.668;2022-09-09T03:05:22;100620.03;;;12.37;100.00
12172;BME280;6149;52.418;13.668;2022-09-09T03:07:49;100620.13;;;12.35;100.00
12172;BME280;6149;52.418;13.668;2022-09-09T03:10:15;100616.69;;;12.33;100.00
12172;BME280;6149;52.418;13.668;2022-09-09T03:12:42;100623.03;;;12.31;100.00
12172;BME280;6149;52.418;13.668;2022-09-09T03:15:10;100621.44;;;12.28;100.00
12172;BME280;6149;52.418;13.668;2022-09-09T03:17:37;100624.25;;;12.25;100.00
12172;BME280;6149;52.418;13.668;2022-09-09T03:20:04;100620.03;;;12.23;100.00
12172;BME280;6149;52.418;13.668;2022-09-09T03:22:32;100624.56;;;12.21;100.00
12172;BME280;6149;52.418;13.668;2022-09-09T03:24:59;100625.59;;;12.18;100.00
12172;BME280;6149;52.418;13.668;2022-09-09T03:27:27;100633.53;;;12.18;100.00
12172;BME280;6149;52.418;13.668;2022-09-09T03:29:53;100628.25;;;12.18;100.00
12172;BME280;6149;52.418;13.668;2022-09-09T03:32:22;100636.28;;;12.17;100.00
12172;BME280;6149;52.418;13.668;2022-09-09T03:34:51;100627.66;;;12.13;100.00
12172;BME280;6149;52.418;13.668;2022-09-09T03:37:18;100634.84;;;12.11;100.00
12172;BME280;6149;52.418;13.668;2022-09-09T03:39:45;100632.38;;;12.08;100.00
12172;BME280;6149;52.418;13.668;2022-09-09T03:42:13;100631.53;;;12.08;100.00
12172;BME280;6149;52.418;13.668;2022-09-09T03:44:44;100625.28;;;12.09;100.00
12172;BME280;6149;52.418;13.668;2022-09-09T03:47:15;100637.69;;;12.08;100.00
12172;BME280;6149;52.418;13.668;2022-09-09T03:49:44;100637.94;;;12.03;100.00
12172;BME280;6149;52.418;13.668;2022-09-09T03:52:11;100640.78;;;12.00;100.00
12172;BME280;6149;52.418;13.668;2022-09-09T03:54:38;100643.50;;;11.99;100.00
12172;BME280;6149;52.418;13.668;2022-09-09T03:57:07;100647.97;;;11.98;100.00
12172;BME280;6149;52.418;13.668;2022-09-09T03:59:34;100639.25;;;11.96;100.00
12172;BME280;6149;52.418;13.668;2022-09-09T04:02:01;100639.25;;;11.96;100.00
12172;BME280;6149;52.418;13.668;2022-09-09T04:04:28;100646.34;;;11.96;100.00
12172;BME280;6149;52.418;13.668;2022-09-09T04:06:56;100637.63;;;11.94;100.00
12172;BME280;6149;52.418;13.668;2022-09-09T04:09:23;100638.56;;;11.93;100.00
12172;BME280;6149;52.418;13.668;2022-09-09T04:11:49;100633.25;;;11.93;100.00
12172;BME280;6149;52.418;13.668;2022-09-09T04:14:16;100635.91;;;11.93;100.00
12172;BME280;6149;52.418;13.668;2022-09-09T04:16:44;100635.16;;;11.91;100.00
12172;BME280;6149;52.418;13.668;2022-09-09T04:19:12;100641.47;;;11.88;100.00
12172;BME280;6149;52.418;13.668;2022-09-09T04:21:40;100636.28;;;11.87;100.00
12172;BME280;6149;52.418;13.668;2022-09-09T04:24:09;100649.53;;;11.87;100.00
12172;BME280;6149;52.418;13.668;2022-09-09T04:26:36;100648.78;;;11.85;100.00
12172;BME280;6149;52.418;13.668;2022-09-09T04:29:03;100648.88;;;11.83;100.00
12172;BME280;6149;52.418;13.668;2022-09-09T04:31:30;100656.91;;;11.82;100.00
12172;BME280;6149;52.418;13.668;2022-09-09T04:33:57;100651.78;;;11.79;100.00
12172;BME280;6149;52.418;13.668;2022-09-09T04:36:23;100658.00;;;11.78;100.00
12172;BME280;6149;52.418;13.668;2022-09-09T04:38:51;100652.78;;;11.76;100.00
12172;BME280;6149;52.418;13.668;2022-09-09T04:41:19;100663.38;;;11.76;100.00
12172;BME280;6149;52.418;13.668;2022-09-09T04:43:46;100658.06;;;11.76;100.00
12172;BME280;6149;52.418;13.668;2022-09-09T04:46:13;100654.56;;;11.76;100.00
12172;BME280;6149;52.418;13.668;2022-09-09T04:48:42;100662.38;;;11.79;100.00
12172;BME280;6149;52.418;13.668;2022-09-09T04:51:12;100661.44;;;11.80;100.00
12172;BME280;6149;52.418;13.668;2022-09-09T04:53:39;100663.13;;;11.81;100.00
12172;BME280;6149;52.418;13.668;2022-09-09T04:56:08;100663.22;;;11.79;100.00
12172;BME280;6149;52.418;13.668;2022-09-09T04:58:38;100671.94;;;11.81;100.00
12172;BME280;6149;52.418;13.668;2022-09-09T05:01:08;100671.84;;;11.83;100.00
12172;BME280;6149;52.418;13.668;2022-09-09T05:03:36;100677.84;;;11.86;100.00
12172;BME280;6149;52.418;13.668;2022-09-09T05:06:05;100675.19;;;11.86;100.00
12172;BME280;6149;52.418;13.668;2022-09-09T05:08:33;100665.31;;;11.88;100.00
12172;BME280;6149;52.418;13.668;2022-09-09T05:11:00;100666.09;;;11.90;100.00
12172;BME280;6149;52.418;13.668;2022-09-09T05:13:27;100664.22;;;11.92;100.00
12172;BME280;6149;52.418;13.668;2022-09-09T05:15:57;100676.34;;;11.96;100.00
12172;BME280;6149;52.418;13.668;2022-09-09T05:18:24;100676.16;;;11.99;100.00
12172;BME280;6149;52.418;13.668;2022-09-09T05:20:50;100669.84;;;12.02;100.00
12172;BME280;6149;52.418;13.668;2022-09-09T05:23:17;100673.06;;;12.07;100.00
12172;BME280;6149;52.418;13.668;2022-09-09T05:25:43;100678.88;;;12.14;100.00
12172;BME280;6149;52.418;13.668;2022-09-09T05:28:22;100684.78;;;12.19;100.00
12172;BME280;6149;52.418;13.668;2022-09-09T05:30:55;100673.03;;;12.23;100.00
12172;BME280;6149;52.418;13.668;2022-09-09T05:33:24;100681.47;;;12.29;100.00
12172;BME280;6149;52.418;13.668;2022-09-09T05:35:59;100680.06;;;12.38;100.00
12172;BME280;6149;52.418;13.668;2022-09-09T05:38:28;100671.56;;;12.47;100.00
12172;BME280;6149;52.418;13.668;2022-09-09T05:40:55;100674.53;;;12.57;100.00
12172;BME280;6149;52.418;13.668;2022-09-09T05:43:22;100677.66;;;12.63;100.00
12172;BME280;6149;52.418;13.668;2022-09-09T05:46:00;100671.88;;;12.71;100.00
12172;BME280;6149;52.418;13.668;2022-09-09T05:48:28;100680.25;;;12.79;100.00
12172;BME280;6149;52.418;13.668;2022-09-09T05:50:56;100672.38;;;12.92;100.00
12172;BME280;6149;52.418;13.668;2022-09-09T05:53:22;100677.47;;;13.09;100.00
12172;BME280;6149;52.418;13.668;2022-09-09T05:55:49;100680.47;;;13.19;100.00
12172;BME280;6149;52.418;13.668;2022-09-09T05:58:16;100683.59;;;13.25;100.00
12172;BME280;6149;52.418;13.668;2022-09-09T06:00:42;100683.00;;;13.34;100.00
12172;BME280;6149;52.418;13.668;2022-09-09T06:03:11;100686.66;;;13.46;100.00
12172;BME280;6149;52.418;13.668;2022-09-09T06:05:37;100687.78;;;13.56;100.00
12172;BME280;6149;52.418;13.668;2022-09-09T06:08:04;100694.13;;;13.68;100.00
12172;BME280;6149;52.418;13.668;2022-09-09T06:10:31;100687.22;;;13.92;100.00
12172;BME280;6149;52.418;13.668;2022-09-09T06:12:59;100694.94;;;14.22;100.00
12172;BME280;6149;52.418;13.668;2022-09-09T06:15:26;100692.69;;;14.56;100.00
12172;BME280;6149;52.418;13.668;2022-09-09T06:17:55;100691.34;;;14.88;100.00
12172;BME280;6149;52.418;13.668;2022-09-09T06:20:23;100697.41;;;15.16;100.00
12172;BME280;6149;52.418;13.668;2022-09-09T06:22:50;100695.44;;;15.43;100.00
12172;BME280;6149;52.418;13.668;2022-09-09T06:25:16;100701.66;;;15.67;100.00
12172;BME280;6149;52.418;13.668;2022-09-09T06:27:48;100694.56;;;15.92;100.00
12172;BME280;6149;52.418;13.668;2022-09-09T06:30:16;100689.53;;;16.11;100.00
12172;BME280;6149;52.418;13.668;2022-09-09T06:32:43;100686.25;;;16.31;100.00
12172;BME280;6149;52.418;13.668;2022-09-09T06:35:10;100695.28;;;16.53;100.00
12172;BME280;6149;52.418;13.668;2022-09-09T06:37:38;100686.72;;;16.71;100.00
12172;BME280;6149;52.418;13.668;2022-09-09T06:40:05;100695.13;;;16.89;100.00
12172;BME280;6149;52.418;13.668;2022-09-09T06:42:33;100701.47;;;16.99;100.00
12172;BME280;6149;52.418;13.668;2022-09-09T06:44:59;100701.47;;;16.99;100.00
12172;BME280;6149;52.418;13.668;2022-09-09T06:47:27;100701.59;;;16.98;100.00
12172;BME280;6149;52.418;13.668;2022-09-09T06:49:55;100699.38;;;16.92;100.00
12172;BME280;6149;52.418;13.668;2022-09-09T06:52:21;100703.38;;;16.86;100.00
12172;BME280;6149;52.418;13.668;2022-09-09T06:54:52;100702.66;;;16.84;100.00
12172;BME280;6149;52.418;13.668;2022-09-09T06:57:18;100704.81;;;16.79;100.00
12172;BME280;6149;52.418;13.668;2022-09-09T06:59:45;100706.88;;;16.76;100.00
12172;BME280;6149;52.418;13.668;2022-09-09T07:02:11;100709.66;;;16.74;100.00
12172;BME280;6149;52.418;13.668;2022-09-09T07:04:38;100703.47;;;16.74;100.00
12172;BME280;6149;52.418;13.668;2022-09-09T07:07:06;100700.69;;;16.75;100.00
12172;BME280;6149;52.418;13.668;2022-09-09T07:09:33;100707.59;;;16.78;100.00
12172;BME280;6149;52.418;13.668;2022-09-09T07:12:02;100713.56;;;16.81;100.00
12172;BME280;6149;52.418;13.668;2022-09-09T07:14:29;100712.72;;;16.81;100.00
12172;BME280;6149;52.418;13.668;2022-09-09T07:16:55;100717.44;;;16.77;100.00
12172;BME280;6149;52.418;13.668;2022-09-09T07:19:22;100707.00;;;16.74;100.00
12172;BME280;6149;52.418;13.668;2022-09-09T07:21:49;100711.13;;;16.78;100.00
12172;BME280;6149;52.418;13.668;2022-09-09T07:24:15;100709.56;;;16.87;100.00
12172;BME280;6149;52.418;13.668;2022-09-09T07:26:42;100704.22;;;16.87;100.00
12172;BME280;6149;52.418;13.668;2022-09-09T07:29:12;100702.91;;;16.92;100.00
12172;BME280;6149;52.418;13.668;2022-09-09T07:31:39;100705.34;;;16.95;100.00
12172;BME280;6149;52.418;13.668;2022-09-09T07:34:06;100704.13;;;17.11;100.00
12172;BME280;6149;52.418;13.668;2022-09-09T07:36:34;100710.94;;;17.26;100.00
12172;BME280;6149;52.418;13.668;2022-09-09T07:39:04;100715.94;;;17.42;100.00
12172;BME280;6149;52.418;13.668;2022-09-09T07:41:34;100714.69;;;17.57;100.00
12172;BME280;6149;52.418;13.668;2022-09-09T07:44:07;100706.91;;;17.76;100.00
12172;BME280;6149;52.418;13.668;2022-09-09T07:46:38;100712.06;;;18.00;100.00
12172;BME280;6149;52.418;13.668;2022-09-09T07:49:06;100713.00;;;18.10;100.00
12172;BME280;6149;52.418;13.668;2022-09-09T07:51:35;100716.88;;;18.17;100.00
12172;BME280;6149;52.418;13.668;2022-09-09T07:54:06;100722.78;;;18.32;100.00
12172;BME280;6149;52.418;13.668;2022-09-09T07:56:34;100728.59;;;18.37;100.00
12172;BME280;6149;52.418;13.668;2022-09-09T07:59:02;100729.53;;;18.47;100.00
12172;BME280;6149;52.418;13.668;2022-09-09T08:01:33;100728.25;;;18.62;100.00
12172;BME280;6149;52.418;13.668;2022-09-09T08:04:07;100733.34;;;18.65;98.62
12172;BME280;6149;52.418;13.668;2022-09-09T08:06:37;100737.72;;;18.66;99.87
12172;BME280;6149;52.418;13.668;2022-09-09T08:09:07;100734.66;;;18.71;97.59
12172;BME280;6149;52.418;13.668;2022-09-09T08:11:35;100737.81;;;18.76;97.11
12172;BME280;6149;52.418;13.668;2022-09-09T08:14:03;100733.69;;;18.93;97.65
12172;BME280;6149;52.418;13.668;2022-09-09T08:16:31;100741.50;;;19.06;96.89
12172;BME280;6149;52.418;13.668;2022-09-09T08:19:02;100742.09;;;19.09;97.62
12172;BME280;6149;52.418;13.668;2022-09-09T08:21:32;100744.25;;;19.15;95.84
12172;BME280;6149;52.418;13.668;2022-09-09T08:24:01;100744.88;;;19.28;92.75
12172;BME280;6149;52.418;13.668;2022-09-09T08:26:29;100745.75;;;19.29;93.98
12172;BME280;6149;52.418;13.668;2022-09-09T08:28:58;100734.16;;;19.28;92.57
12172;BME280;6149;52.418;13.668;2022-09-09T08:31:27;100733.56;;;19.25;91.49
12172;BME280;6149;52.418;13.668;2022-09-09T08:33:55;100737.78;;;19.18;93.59
12172;BME280;6149;52.418;13.668;2022-09-09T08:36:26;100734.06;;;19.09;94.88
12172;BME280;6149;52.418;13.668;2022-09-09T08:38:56;100738.94;;;19.04;95.99
12172;BME280;6149;52.418;13.668;2022-09-09T08:41:38;100741.91;;;19.01;96.72
12172;BME280;6149;52.418;13.668;2022-09-09T08:44:13;100734.97;;;18.98;96.89
12172;BME280;6149;52.418;13.668;2022-09-09T08:46:46;100744.97;;;18.96;94.77
12172;BME280;6149;52.418;13.668;2022-09-09T08:49:35;100738.38;;;19.00;93.64
12172;BME280;6149;52.418;13.668;2022-09-09T08:52:13;100745.44;;;19.01;94.35
12172;BME280;6149;52.418;13.668;2022-09-09T08:54:46;100745.75;;;19.08;93.88
12172;BME280;6149;52.418;13.668;2022-09-09T08:57:26;100745.28;;;19.24;93.41
12172;BME280;6149;52.418;13.668;2022-09-09T08:59:56;100743.84;;;19.50;90.71
12172;BME280;6149;52.418;13.668;2022-09-09T09:02:27;100748.34;;;19.80;93.54
12172;BME280;6149;52.418;13.668;2022-09-09T09:05:07;100739.78;;;20.15;92.24
12172;BME280;6149;52.418;13.668;2022-09-09T09:07:49;100746.50;;;20.40;89.27
12172;BME280;6149;52.418;13.668;2022-09-09T09:10:34;100744.34;;;20.63;88.37
12172;BME280;6149;52.418;13.668;2022-09-09T09:13:12;100747.31;;;20.79;87.34
12172;BME280;6149;52.418;13.668;2022-09-09T09:15:42;100738.75;;;21.03;83.44
12172;BME280;6149;52.418;13.668;2022-09-09T09:18:12;100740.97;;;21.27;86.05
12172;BME280;6149;52.418;13.668;2022-09-09T09:20:50;100743.75;;;21.45;82.05
12172;BME280;6149;52.418;13.668;2022-09-09T09:23:22;100736.94;;;21.50;83.52
12172;BME280;6149;52.418;13.668;2022-09-09T09:25:56;100734.97;;;21.43;82.62
12172;BME280;6149;52.418;13.668;2022-09-09T09:28:28;100737.53;;;21.44;82.16
12172;BME280;6149;52.418;13.668;2022-09-09T09:30:59;100736.72;;;21.61;82.65
12172;BME280;6149;52.418;13.668;2022-09-09T09:33:31;100742.47;;;21.76;82.04
12172;BME280;6149;52.418;13.668;2022-09-09T09:36:01;100734.88;;;21.89;79.03
12172;BME280;6149;52.418;13.668;2022-09-09T09:38:33;100735.88;;;21.88;81.13
12172;BME280;6149;52.418;13.668;2022-09-09T09:41:02;100737.06;;;22.04;78.40
12172;BME280;6149;52.418;13.668;2022-09-09T09:43:30;100733.81;;;22.27;77.76
12172;BME280;6149;52.418;13.668;2022-09-09T09:45:58;100741.63;;;22.56;77.54
12172;BME280;6149;52.418;13.668;2022-09-09T09:48:27;100743.22;;;22.85;74.70
12172;BME280;6149;52.418;13.668;2022-09-09T09:50:56;100733.97;;;23.13;73.93
12172;BME280;6149;52.418;13.668;2022-09-09T09:53:26;100740.06;;;23.49;74.65
12172;BME280;6149;52.418;13.668;2022-09-09T09:55:57;100740.66;;;23.61;69.34
12172;BME280;6149;52.418;13.668;2022-09-09T09:58:30;100732.97;;;23.74;68.04
12172;BME280;6149;52.418;13.668;2022-09-09T10:00:59;100739.88;;;23.69;69.55
12172;BME280;6149;52.418;13.668;2022-09-09T10:03:29;100734.81;;;23.74;68.32
12172;BME280;6149;52.418;13.668;2022-09-09T10:05:57;100733.78;;;23.66;68.36
12172;BME280;6149;52.418;13.668;2022-09-09T10:08:24;100741.00;;;23.58;67.38
12172;BME280;6149;52.418;13.668;2022-09-09T10:11:02;100733.97;;;23.39;68.78
12172;BME280;6149;52.418;13.668;2022-09-09T10:13:41;100730.91;;;23.34;68.96
12172;BME280;6149;52.418;13.668;2022-09-09T10:16:26;100731.84;;;23.25;68.84
12172;BME280;6149;52.418;13.668;2022-09-09T10:18:59;100723.72;;;23.17;69.62
12172;BME280;6149;52.418;13.668;2022-09-09T10:21:41;100728.75;;;22.86;70.69
12172;BME280;6149;52.418;13.668;2022-09-09T10:24:32;100735.03;;;22.77;71.22
12172;BME280;6149;52.418;13.668;2022-09-09T10:27:15;100734.34;;;22.75;72.50
12172;BME280;6149;52.418;13.668;2022-09-09T10:30:03;100732.13;;;22.70;72.55
12172;BME280;6149;52.418;13.668;2022-09-09T10:32:46;100735.63;;;22.62;72.86
12172;BME280;6149;52.418;13.668;2022-09-09T10:35:29;100736.25;;;22.56;71.41
12172;BME280;6149;52.418;13.668;2022-09-09T10:38:11;100727.78;;;22.51;69.11
12172;BME280;6149;52.418;13.668;2022-09-09T10:40:58;100738.84;;;22.48;70.86
12172;BME280;6149;52.418;13.668;2022-09-09T10:43:42;100746.09;;;22.30;70.18
12172;BME280;6149;52.418;13.668;2022-09-09T10:46:23;100741.69;;;22.11;74.01
12172;BME280;6149;52.418;13.668;2022-09-09T10:49:04;100742.31;;;22.05;73.16
12172;BME280;6149;52.418;13.668;2022-09-09T10:51:42;100737.78;;;21.96;73.91
12172;BME280;6149;52.418;13.668;2022-09-09T10:54:31;100748.25;;;21.99;74.55
12172;BME280;6149;52.418;13.668;2022-09-09T10:57:11;100749.19;;;21.90;75.63
12172;BME280;6149;52.418;13.668;2022-09-09T10:59:43;100746.41;;;21.82;72.83
12172;BME280;6149;52.418;13.668;2022-09-09T11:02:16;100749.78;;;21.84;73.39
12172;BME280;6149;52.418;13.668;2022-09-09T11:04:51;100749.00;;;21.91;73.83
12172;BME280;6149;52.418;13.668;2022-09-09T11:07:27;100741.88;;;22.00;76.18
12172;BME280;6149;52.418;13.668;2022-09-09T11:10:00;100742.25;;;22.15;74.94
12172;BME280;6149;52.418;13.668;2022-09-09T11:12:30;100734.25;;;22.23;75.92
12172;BME280;6149;52.418;13.668;2022-09-09T11:15:03;100734.88;;;22.17;74.07
12172;BME280;6149;52.418;13.668;2022-09-09T11:17:40;100742.69;;;22.10;73.74
12172;BME280;6149;52.418;13.668;2022-09-09T11:20:12;100740.63;;;22.04;75.61
12172;BME280;6149;52.418;13.668;2022-09-09T11:22:44;100736.94;;;21.95;76.85
12172;BME280;6149;52.418;13.668;2022-09-09T11:25:16;100745.16;;;21.94;76.61
12172;BME280;6149;52.418;13.668;2022-09-09T11:27:58;100740.09;;;21.91;76.34
12172;BME280;6149;52.418;13.668;2022-09-09T11:30:38;100727.94;;;21.87;76.59
12172;BME280;6149;52.418;13.668;2022-09-09T11:33:49;100737.63;;;21.80;76.66
12172;BME280;6149;52.418;13.668;2022-09-09T11:36:43;100735.94;;;21.79;77.74
12172;BME280;6149;52.418;13.668;2022-09-09T11:39:47;100731.66;;;21.86;76.75
12172;BME280;6149;52.418;13.668;2022-09-09T11:42:24;100730.41;;;21.98;77.05
12172;BME280;6149;52.418;13.668;2022-09-09T11:44:51;100733.47;;;22.13;75.85
12172;BME280;6149;52.418;13.668;2022-09-09T11:47:23;100730.47;;;22.16;73.22
12172;BME280;6149;52.418;13.668;2022-09-09T11:50:08;100731.56;;;22.23;70.20
12172;BME280;6149;52.418;13.668;2022-09-09T11:52:37;100733.72;;;22.19;74.00
12172;BME280;6149;52.418;13.668;2022-09-09T11:55:09;100728.31;;;22.19;72.20
12172;BME280;6149;52.418;13.668;2022-09-09T11:57:38;100720.25;;;22.19;71.97
12172;BME280;6149;52.418;13.668;2022-09-09T12:00:06;100720.00;;;22.30;71.03
12172;BME280;6149;52.418;13.668;2022-09-09T12:02:54;100719.00;;;22.31;71.58
12172;BME280;6149;52.418;13.668;2022-09-09T12:05:23;100715.56;;;22.21;72.66
12172;BME280;6149;52.418;13.668;2022-09-09T12:07:52;100722.84;;;22.29;67.89
12172;BME280;6149;52.418;13.668;2022-09-09T12:10:25;100716.28;;;22.31;68.90
12172;BME280;6149;52.418;13.668;2022-09-09T12:12:53;100712.44;;;22.34;69.78
12172;BME280;6149;52.418;13.668;2022-09-09T12:15:23;100712.28;;;22.35;70.04
12172;BME280;6149;52.418;13.668;2022-09-09T12:17:54;100695.97;;;22.37;71.18
12172;BME280;6149;52.418;13.668;2022-09-09T12:20:31;100701.22;;;22.39;67.57
12172;BME280;6149;52.418;13.668;2022-09-09T12:23:25;100701.09;;;22.22;69.72
12172;BME280;6149;52.418;13.668;2022-09-09T12:26:07;100700.91;;;22.06;71.08
12172;BME280;6149;52.418;13.668;2022-09-09T12:28:52;100700.22;;;22.04;70.11
12172;BME280;6149;52.418;13.668;2022-09-09T12:31:27;100695.22;;;22.09;71.01
12172;BME280;6149;52.418;13.668;2022-09-09T12:34:09;100690.69;;;22.10;69.22
12172;BME280;6149;52.418;13.668;2022-09-09T12:36:39;100691.13;;;22.05;67.88
12172;BME280;6149;52.418;13.668;2022-09-09T12:41:51;100683.69;;;22.17;70.15
12172;BME280;6149;52.418;13.668;2022-09-09T12:44:22;100685.75;;;22.23;68.97
12172;BME280;6149;52.418;13.668;2022-09-09T12:46:50;100684.75;;;22.24;71.36
12172;BME280;6149;52.418;13.668;2022-09-09T12:49:27;100684.06;;;22.22;71.89
12172;BME280;6149;52.418;13.668;2022-09-09T12:52:01;100689.59;;;22.20;69.21
12172;BME280;6149;52.418;13.668;2022-09-09T12:54:30;100677.28;;;22.18;69.06
12172;BME280;6149;52.418;13.668;2022-09-09T12:56:57;100670.75;;;22.20;70.51
12172;BME280;6149;52.418;13.668;2022-09-09T12:59:26;100673.41;;;22.38;68.60
12172;BME280;6149;52.418;13.668;2022-09-09T13:02:01;100678.81;;;22.38;69.58
12172;BME280;6149;52.418;13.668;2022-09-09T13:04:27;100685.34;;;22.35;68.85
12172;BME280;6149;52.418;13.668;2022-09-09T13:07:05;100688.66;;;22.29;69.88
12172;BME280;6149;52.418;13.668;2022-09-09T13:09:42;100683.97;;;22.31;69.94
12172;BME280;6149;52.418;13.668;2022-09-09T13:12:13;100691.34;;;22.29;67.81